sensor_id;sensor_type;location;lat;lon;timestamp;temperature;humidity
23267;DHT22;11802;53.160;8.214;2024-02-26T00:02:19;3.60;99.90
23267;DHT22;11802;53.160;8.214;2024-02-26T00:04:45;3.60;99.90
23267;DHT22;11802;53.160;8.214;2024-02-26T00:07:10;3.50;99.90
23267;DHT22;11802;53.160;8.214;2024-02-26T00:09:36;3.50;99.90
23267;DHT22;11802;53.160;8.214;2024-02-26T00:12:03;3.50;99.90
23267;DHT22;11802;53.160;8.214;2024-02-26T00:14:29;3.50;99.90
23267;DHT22;11802;53.160;8.214;2024-02-26T00:16:55;3.40;99.90
23267;DHT22;11802;53.160;8.214;2024-02-26T00:19:21;3.40;99.90
23267;DHT22;11802;53.160;8.214;2024-02-26T00:21:46;3.40;99.90
23267;DHT22;11802;53.160;8.214;2024-02-26T00:24:12;3.40;99.90
23267;DHT22;11802;53.160;8.214;2024-02-26T00:26:38;3.40;99.90
23267;DHT22;11802;53.160;8.214;2024-02-26T00:29:03;3.50;99.90
23267;DHT22;11802;53.160;8.214;2024-02-26T00:31:29;3.50;99.90
23267;DHT22;11802;53.160;8.214;2024-02-26T00:33:54;3.50;99.90
23267;DHT22;11802;53.160;8.214;2024-02-26T00:36:20;3.40;99.90
23267;DHT22;11802;53.160;8.214;2024-02-26T00:38:45;3.30;99.90
23267;DHT22;11802;53.160;8.214;2024-02-26T00:41:25;3.20;99.90
23267;DHT22;11802;53.160;8.214;2024-02-26T00:43:50;3.20;99.90
23267;DHT22;11802;53.160;8.214;2024-02-26T00:46:16;3.40;99.90
23267;DHT22;11802;53.160;8.214;2024-02-26T00:48:41;3.40;99.90
23267;DHT22;11802;53.160;8.214;2024-02-26T00:51:07;3.30;99.90
23267;DHT22;11802;53.160;8.214;2024-02-26T00:53:33;3.20;99.90
23267;DHT22;11802;53.160;8.214;2024-02-26T00:55:58;3.20;99.90
23267;DHT22;11802;53.160;8.214;2024-02-26T00:58:25;3.20;99.90
23267;DHT22;11802;53.160;8.214;2024-02-26T01:00:51;3.20;99.90
23267;DHT22;11802;53.160;8.214;2024-02-26T01:03:17;3.10;99.90
23267;DHT22;11802;53.160;8.214;2024-02-26T01:05:43;3.10;99.90
23267;DHT22;11802;53.160;8.214;2024-02-26T01:08:09;3.00;99.90
23267;DHT22;11802;53.160;8.214;2024-02-26T01:10:34;3.10;99.90
23267;DHT22;11802;53.160;8.214;2024-02-26T01:13:00;3.00;99.90
23267;DHT22;11802;53.160;8.214;2024-02-26T01:15:26;3.00;99.90
23267;DHT22;11802;53.160;8.214;2024-02-26T01:17:52;2.90;99.90
23267;DHT22;11802;53.160;8.214;2024-02-26T01:20:18;2.90;99.90
23267;DHT22;11802;53.160;8.214;2024-02-26T01:22:44;2.90;99.90
23267;DHT22;11802;53.160;8.214;2024-02-26T01:25:09;2.80;99.90
23267;DHT22;11802;53.160;8.214;2024-02-26T01:27:36;2.80;99.90
23267;DHT22;11802;53.160;8.214;2024-02-26T01:30:05;2.80;99.90
23267;DHT22;11802;53.160;8.214;2024-02-26T01:32:31;2.80;99.90
23267;DHT22;11802;53.160;8.214;2024-02-26T01:34:57;2.80;99.90
23267;DHT22;11802;53.160;8.214;2024-02-26T01:37:23;2.80;99.90
23267;DHT22;11802;53.160;8.214;2024-02-26T01:39:48;2.70;99.90
23267;DHT22;11802;53.160;8.214;2024-02-26T01:42:14;2.70;99.90
23267;DHT22;11802;53.160;8.214;2024-02-26T01:44:39;2.70;99.90
23267;DHT22;11802;53.160;8.214;2024-02-26T01:47:11;2.80;99.90
23267;DHT22;11802;53.160;8.214;2024-02-26T01:49:38;2.80;99.90
23267;DHT22;11802;53.160;8.214;2024-02-26T01:52:06;2.80;99.90
23267;DHT22;11802;53.160;8.214;2024-02-26T01:54:34;2.80;99.90
23267;DHT22;11802;53.160;8.214;2024-02-26T01:57:00;2.90;99.90
23267;DHT22;11802;53.160;8.214;2024-02-26T01:59:27;2.90;99.90
23267;DHT22;11802;53.160;8.214;2024-02-26T02:01:55;2.90;99.90
23267;DHT22;11802;53.160;8.214;2024-02-26T02:04:23;2.90;99.90
23267;DHT22;11802;53.160;8.214;2024-02-26T02:06:50;2.90;99.90
23267;DHT22;11802;53.160;8.214;2024-02-26T02:09:16;2.90;99.90
23267;DHT22;11802;53.160;8.214;2024-02-26T02:11:41;2.90;99.90
23267;DHT22;11802;53.160;8.214;2024-02-26T02:14:07;2.90;99.90
23267;DHT22;11802;53.160;8.214;2024-02-26T02:16:33;2.90;99.90
23267;DHT22;11802;53.160;8.214;2024-02-26T02:18:59;2.90;99.90
23267;DHT22;11802;53.160;8.214;2024-02-26T02:21:24;2.90;99.90
23267;DHT22;11802;53.160;8.214;2024-02-26T02:23:50;2.90;99.90
23267;DHT22;11802;53.160;8.214;2024-02-26T02:26:16;2.90;99.90
23267;DHT22;11802;53.160;8.214;2024-02-26T02:28:41;2.90;99.90
23267;DHT22;11802;53.160;8.214;2024-02-26T02:31:07;2.80;99.90
23267;DHT22;11802;53.160;8.214;2024-02-26T02:33:34;2.70;99.90
23267;DHT22;11802;53.160;8.214;2024-02-26T02:36:00;2.60;99.90
23267;DHT22;11802;53.160;8.214;2024-02-26T02:38:26;2.60;99.90
23267;DHT22;11802;53.160;8.214;2024-02-26T02:40:52;2.60;99.90
23267;DHT22;11802;53.160;8.214;2024-02-26T02:43:17;2.50;99.90
23267;DHT22;11802;53.160;8.214;2024-02-26T02:45:43;2.50;99.90
23267;DHT22;11802;53.160;8.214;2024-02-26T02:48:09;2.50;99.90
23267;DHT22;11802;53.160;8.214;2024-02-26T02:50:34;2.50;99.90
23267;DHT22;11802;53.160;8.214;2024-02-26T02:53:00;2.50;99.90
23267;DHT22;11802;53.160;8.214;2024-02-26T02:55:26;2.40;99.90
23267;DHT22;11802;53.160;8.214;2024-02-26T02:57:52;2.40;99.90
23267;DHT22;11802;53.160;8.214;2024-02-26T03:00:18;2.40;99.90
23267;DHT22;11802;53.160;8.214;2024-02-26T03:02:43;2.40;99.90
23267;DHT22;11802;53.160;8.214;2024-02-26T03:05:10;2.40;99.90
23267;DHT22;11802;53.160;8.214;2024-02-26T03:07:36;2.40;99.90
23267;DHT22;11802;53.160;8.214;2024-02-26T03:10:01;2.40;99.90
23267;DHT22;11802;53.160;8.214;2024-02-26T03:12:27;2.40;99.90
23267;DHT22;11802;53.160;8.214;2024-02-26T03:14:53;2.40;99.90
23267;DHT22;11802;53.160;8.214;2024-02-26T03:17:20;2.40;99.90
23267;DHT22;11802;53.160;8.214;2024-02-26T03:19:46;2.50;99.90
23267;DHT22;11802;53.160;8.214;2024-02-26T03:22:13;2.50;99.90
23267;DHT22;11802;53.160;8.214;2024-02-26T03:24:38;2.50;99.90
23267;DHT22;11802;53.160;8.214;2024-02-26T03:27:04;2.60;99.90
23267;DHT22;11802;53.160;8.214;2024-02-26T03:29:35;2.50;99.90
23267;DHT22;11802;53.160;8.214;2024-02-26T03:32:00;2.50;99.90
23267;DHT22;11802;53.160;8.214;2024-02-26T03:34:26;2.50;99.90
23267;DHT22;11802;53.160;8.214;2024-02-26T03:36:52;2.60;99.90
23267;DHT22;11802;53.160;8.214;2024-02-26T03:39:18;2.60;99.90
23267;DHT22;11802;53.160;8.214;2024-02-26T03:41:43;2.60;99.90
23267;DHT22;11802;53.160;8.214;2024-02-26T03:44:09;2.60;99.90
23267;DHT22;11802;53.160;8.214;2024-02-26T03:46:35;2.60;99.90
23267;DHT22;11802;53.160;8.214;2024-02-26T03:49:00;2.50;99.90
23267;DHT22;11802;53.160;8.214;2024-02-26T03:51:26;2.50;99.90
23267;DHT22;11802;53.160;8.214;2024-02-26T03:53:53;2.50;99.90
23267;DHT22;11802;53.160;8.214;2024-02-26T03:56:19;2.50;99.90
23267;DHT22;11802;53.160;8.214;2024-02-26T03:58:45;2.60;99.90
23267;DHT22;11802;53.160;8.214;2024-02-26T04:01:11;2.60;99.90
23267;DHT22;11802;53.160;8.214;2024-02-26T04:03:37;2.60;99.90
23267;DHT22;11802;53.160;8.214;2024-02-26T04:06:02;2.70;99.90
23267;DHT22;11802;53.160;8.214;2024-02-26T04:08:29;2.70;99.90
23267;DHT22;11802;53.160;8.214;2024-02-26T04:10:54;2.70;99.90
23267;DHT22;11802;53.160;8.214;2024-02-26T04:13:20;2.80;99.90
23267;DHT22;11802;53.160;8.214;2024-02-26T04:15:45;2.80;99.90
23267;DHT22;11802;53.160;8.214;2024-02-26T04:18:12;2.80;99.90
23267;DHT22;11802;53.160;8.214;2024-02-26T04:20:37;2.80;99.90
23267;DHT22;11802;53.160;8.214;2024-02-26T04:23:03;2.90;99.90
23267;DHT22;11802;53.160;8.214;2024-02-26T04:25:29;2.90;99.90
23267;DHT22;11802;53.160;8.214;2024-02-26T04:27:54;2.90;99.90
23267;DHT22;11802;53.160;8.214;2024-02-26T04:30:20;2.90;99.90
23267;DHT22;11802;53.160;8.214;2024-02-26T04:32:46;2.90;99.90
23267;DHT22;11802;53.160;8.214;2024-02-26T04:35:11;2.90;99.90
23267;DHT22;11802;53.160;8.214;2024-02-26T04:37:37;3.00;99.90
23267;DHT22;11802;53.160;8.214;2024-02-26T04:40:03;3.00;99.90
23267;DHT22;11802;53.160;8.214;2024-02-26T04:42:29;3.00;99.90
23267;DHT22;11802;53.160;8.214;2024-02-26T04:44:55;3.00;99.90
23267;DHT22;11802;53.160;8.214;2024-02-26T04:47:21;3.00;99.90
23267;DHT22;11802;53.160;8.214;2024-02-26T04:49:49;2.90;99.90
23267;DHT22;11802;53.160;8.214;2024-02-26T04:52:14;2.90;99.90
23267;DHT22;11802;53.160;8.214;2024-02-26T04:54:40;2.90;99.90
23267;DHT22;11802;53.160;8.214;2024-02-26T04:57:06;2.90;99.90
23267;DHT22;11802;53.160;8.214;2024-02-26T04:59:31;2.90;99.90
23267;DHT22;11802;53.160;8.214;2024-02-26T05:01:57;2.90;99.90
23267;DHT22;11802;53.160;8.214;2024-02-26T05:04:22;2.90;99.90
23267;DHT22;11802;53.160;8.214;2024-02-26T05:06:48;2.80;99.90
23267;DHT22;11802;53.160;8.214;2024-02-26T05:09:13;2.80;99.90
23267;DHT22;11802;53.160;8.214;2024-02-26T05:11:39;2.80;99.90
23267;DHT22;11802;53.160;8.214;2024-02-26T05:14:04;2.80;99.90
23267;DHT22;11802;53.160;8.214;2024-02-26T05:16:30;2.80;99.90
23267;DHT22;11802;53.160;8.214;2024-02-26T05:18:57;2.80;99.90
23267;DHT22;11802;53.160;8.214;2024-02-26T05:21:22;2.80;99.90
23267;DHT22;11802;53.160;8.214;2024-02-26T05:23:48;2.80;99.90
23267;DHT22;11802;53.160;8.214;2024-02-26T05:26:20;2.80;99.90
23267;DHT22;11802;53.160;8.214;2024-02-26T05:28:46;2.80;99.90
23267;DHT22;11802;53.160;8.214;2024-02-26T05:31:13;2.80;99.90
23267;DHT22;11802;53.160;8.214;2024-02-26T05:33:39;2.80;99.90
23267;DHT22;11802;53.160;8.214;2024-02-26T05:36:05;2.80;99.90
23267;DHT22;11802;53.160;8.214;2024-02-26T05:38:31;2.70;99.90
23267;DHT22;11802;53.160;8.214;2024-02-26T05:41:05;2.70;99.90
23267;DHT22;11802;53.160;8.214;2024-02-26T05:43:33;2.70;99.90
23267;DHT22;11802;53.160;8.214;2024-02-26T05:45:58;2.70;99.90
23267;DHT22;11802;53.160;8.214;2024-02-26T05:48:24;2.70;99.90
23267;DHT22;11802;53.160;8.214;2024-02-26T05:50:50;2.70;99.90
23267;DHT22;11802;53.160;8.214;2024-02-26T05:53:15;2.70;99.90
23267;DHT22;11802;53.160;8.214;2024-02-26T05:55:41;2.60;99.90
23267;DHT22;11802;53.160;8.214;2024-02-26T05:58:07;2.70;99.90
23267;DHT22;11802;53.160;8.214;2024-02-26T06:00:32;2.70;99.90
23267;DHT22;11802;53.160;8.214;2024-02-26T06:02:58;2.70;99.90
23267;DHT22;11802;53.160;8.214;2024-02-26T06:05:23;2.70;99.90
23267;DHT22;11802;53.160;8.214;2024-02-26T06:07:49;2.70;99.90
23267;DHT22;11802;53.160;8.214;2024-02-26T06:10:14;2.70;99.90
23267;DHT22;11802;53.160;8.214;2024-02-26T06:12:40;2.60;99.90
23267;DHT22;11802;53.160;8.214;2024-02-26T06:15:06;2.60;99.90
23267;DHT22;11802;53.160;8.214;2024-02-26T06:17:32;2.60;99.90
23267;DHT22;11802;53.160;8.214;2024-02-26T06:19:58;2.60;99.90
23267;DHT22;11802;53.160;8.214;2024-02-26T06:22:25;2.60;99.90
23267;DHT22;11802;53.160;8.214;2024-02-26T06:24:50;2.60;99.90
23267;DHT22;11802;53.160;8.214;2024-02-26T06:27:16;2.60;99.90
23267;DHT22;11802;53.160;8.214;2024-02-26T06:29:41;2.60;99.90
23267;DHT22;11802;53.160;8.214;2024-02-26T06:32:07;2.60;99.90
23267;DHT22;11802;53.160;8.214;2024-02-26T06:34:32;2.60;99.90
23267;DHT22;11802;53.160;8.214;2024-02-26T06:36:58;2.60;99.90
23267;DHT22;11802;53.160;8.214;2024-02-26T06:39:24;2.60;99.90
23267;DHT22;11802;53.160;8.214;2024-02-26T06:41:49;2.70;99.90
23267;DHT22;11802;53.160;8.214;2024-02-26T06:44:15;2.70;99.90
23267;DHT22;11802;53.160;8.214;2024-02-26T06:46:40;2.70;99.90
23267;DHT22;11802;53.160;8.214;2024-02-26T06:49:06;2.80;99.90
23267;DHT22;11802;53.160;8.214;2024-02-26T06:51:32;2.80;99.90
23267;DHT22;11802;53.160;8.214;2024-02-26T06:53:58;2.80;99.90
23267;DHT22;11802;53.160;8.214;2024-02-26T06:56:23;2.90;99.90
23267;DHT22;11802;53.160;8.214;2024-02-26T06:58:49;2.80;99.90
23267;DHT22;11802;53.160;8.214;2024-02-26T07:01:50;2.90;99.90
23267;DHT22;11802;53.160;8.214;2024-02-26T07:04:23;2.90;99.90
23267;DHT22;11802;53.160;8.214;2024-02-26T07:06:49;3.00;99.90
23267;DHT22;11802;53.160;8.214;2024-02-26T07:09:15;3.00;99.90
23267;DHT22;11802;53.160;8.214;2024-02-26T07:11:41;3.00;99.90
23267;DHT22;11802;53.160;8.214;2024-02-26T07:14:09;3.00;99.90
23267;DHT22;11802;53.160;8.214;2024-02-26T07:16:35;3.10;99.90
23267;DHT22;11802;53.160;8.214;2024-02-26T07:19:01;3.10;99.90
23267;DHT22;11802;53.160;8.214;2024-02-26T07:21:26;3.10;99.90
23267;DHT22;11802;53.160;8.214;2024-02-26T07:23:52;3.10;99.90
23267;DHT22;11802;53.160;8.214;2024-02-26T07:26:18;3.20;99.90
23267;DHT22;11802;53.160;8.214;2024-02-26T07:28:44;3.20;99.90
23267;DHT22;11802;53.160;8.214;2024-02-26T07:31:10;3.30;99.90
23267;DHT22;11802;53.160;8.214;2024-02-26T07:33:36;3.30;99.90
23267;DHT22;11802;53.160;8.214;2024-02-26T07:36:02;3.30;99.90
23267;DHT22;11802;53.160;8.214;2024-02-26T07:38:27;3.30;99.90
23267;DHT22;11802;53.160;8.214;2024-02-26T07:40:53;3.40;99.90
23267;DHT22;11802;53.160;8.214;2024-02-26T07:43:18;3.40;99.90
23267;DHT22;11802;53.160;8.214;2024-02-26T07:45:44;3.50;99.90
23267;DHT22;11802;53.160;8.214;2024-02-26T07:48:10;3.50;99.90
23267;DHT22;11802;53.160;8.214;2024-02-26T07:50:35;3.60;99.90
23267;DHT22;11802;53.160;8.214;2024-02-26T07:53:01;3.60;99.90
23267;DHT22;11802;53.160;8.214;2024-02-26T07:55:27;3.60;99.90
23267;DHT22;11802;53.160;8.214;2024-02-26T07:57:52;3.60;99.90
23267;DHT22;11802;53.160;8.214;2024-02-26T08:00:18;3.60;99.90
23267;DHT22;11802;53.160;8.214;2024-02-26T08:02:44;3.70;99.90
23267;DHT22;11802;53.160;8.214;2024-02-26T08:05:10;3.70;99.90
23267;DHT22;11802;53.160;8.214;2024-02-26T08:07:35;3.70;99.90
23267;DHT22;11802;53.160;8.214;2024-02-26T08:10:01;3.70;99.90
23267;DHT22;11802;53.160;8.214;2024-02-26T08:12:26;3.70;99.90
23267;DHT22;11802;53.160;8.214;2024-02-26T08:14:52;3.70;99.90
23267;DHT22;11802;53.160;8.214;2024-02-26T08:17:17;3.80;99.90
23267;DHT22;11802;53.160;8.214;2024-02-26T08:19:43;3.80;99.90
23267;DHT22;11802;53.160;8.214;2024-02-26T08:22:09;3.80;99.90
23267;DHT22;11802;53.160;8.214;2024-02-26T08:24:43;3.90;99.90
23267;DHT22;11802;53.160;8.214;2024-02-26T08:27:09;3.90;99.90
23267;DHT22;11802;53.160;8.214;2024-02-26T08:29:35;3.80;99.90
23267;DHT22;11802;53.160;8.214;2024-02-26T08:32:01;3.90;99.90
23267;DHT22;11802;53.160;8.214;2024-02-26T08:34:27;3.90;99.90
23267;DHT22;11802;53.160;8.214;2024-02-26T08:36:53;3.90;99.90
23267;DHT22;11802;53.160;8.214;2024-02-26T08:39:18;4.00;99.90
23267;DHT22;11802;53.160;8.214;2024-02-26T08:41:44;4.00;99.90
23267;DHT22;11802;53.160;8.214;2024-02-26T08:44:10;4.10;99.90
23267;DHT22;11802;53.160;8.214;2024-02-26T08:46:36;4.10;99.90
23267;DHT22;11802;53.160;8.214;2024-02-26T08:49:02;4.10;99.90
23267;DHT22;11802;53.160;8.214;2024-02-26T08:51:27;4.10;99.90
23267;DHT22;11802;53.160;8.214;2024-02-26T08:53:53;4.20;99.90
23267;DHT22;11802;53.160;8.214;2024-02-26T08:56:19;4.20;99.90
23267;DHT22;11802;53.160;8.214;2024-02-26T08:58:46;4.20;99.90
23267;DHT22;11802;53.160;8.214;2024-02-26T09:01:14;4.30;99.90
23267;DHT22;11802;53.160;8.214;2024-02-26T09:03:40;4.30;99.90
23267;DHT22;11802;53.160;8.214;2024-02-26T09:06:06;4.40;99.90
23267;DHT22;11802;53.160;8.214;2024-02-26T09:08:32;4.50;99.90
23267;DHT22;11802;53.160;8.214;2024-02-26T09:10:58;4.50;99.90
23267;DHT22;11802;53.160;8.214;2024-02-26T09:13:24;4.60;99.90
23267;DHT22;11802;53.160;8.214;2024-02-26T09:15:49;4.60;99.90
23267;DHT22;11802;53.160;8.214;2024-02-26T09:18:15;4.70;99.90
23267;DHT22;11802;53.160;8.214;2024-02-26T09:20:41;4.70;99.90
23267;DHT22;11802;53.160;8.214;2024-02-26T09:23:07;4.70;99.90
23267;DHT22;11802;53.160;8.214;2024-02-26T09:25:32;4.70;99.90
23267;DHT22;11802;53.160;8.214;2024-02-26T09:27:59;4.80;99.90
23267;DHT22;11802;53.160;8.214;2024-02-26T09:30:25;4.80;99.90
23267;DHT22;11802;53.160;8.214;2024-02-26T09:32:50;4.80;99.90
23267;DHT22;11802;53.160;8.214;2024-02-26T09:35:16;4.90;99.90
23267;DHT22;11802;53.160;8.214;2024-02-26T09:37:42;4.90;99.90
23267;DHT22;11802;53.160;8.214;2024-02-26T09:40:09;4.90;99.90
23267;DHT22;11802;53.160;8.214;2024-02-26T09:42:43;5.00;99.90
23267;DHT22;11802;53.160;8.214;2024-02-26T09:45:18;5.00;99.90
23267;DHT22;11802;53.160;8.214;2024-02-26T09:47:44;5.10;99.90
23267;DHT22;11802;53.160;8.214;2024-02-26T09:50:11;5.10;99.90
23267;DHT22;11802;53.160;8.214;2024-02-26T09:52:39;5.20;99.90
23267;DHT22;11802;53.160;8.214;2024-02-26T09:55:08;5.30;99.90
23267;DHT22;11802;53.160;8.214;2024-02-26T09:57:34;5.30;99.90
23267;DHT22;11802;53.160;8.214;2024-02-26T10:00:03;5.40;99.90
23267;DHT22;11802;53.160;8.214;2024-02-26T10:02:33;5.50;99.90
23267;DHT22;11802;53.160;8.214;2024-02-26T10:04:59;5.60;99.90
23267;DHT22;11802;53.160;8.214;2024-02-26T10:07:30;5.60;99.90
23267;DHT22;11802;53.160;8.214;2024-02-26T10:09:57;5.70;99.90
23267;DHT22;11802;53.160;8.214;2024-02-26T10:12:23;5.90;99.90
23267;DHT22;11802;53.160;8.214;2024-02-26T10:14:48;5.90;99.90
23267;DHT22;11802;53.160;8.214;2024-02-26T10:17:15;5.90;99.90
23267;DHT22;11802;53.160;8.214;2024-02-26T10:19:40;6.00;99.90
23267;DHT22;11802;53.160;8.214;2024-02-26T10:22:07;6.00;99.90
23267;DHT22;11802;53.160;8.214;2024-02-26T10:25:05;6.00;99.90
23267;DHT22;11802;53.160;8.214;2024-02-26T10:27:52;6.10;99.90
23267;DHT22;11802;53.160;8.214;2024-02-26T10:30:20;6.10;99.90
23267;DHT22;11802;53.160;8.214;2024-02-26T10:33:01;6.00;99.90
23267;DHT22;11802;53.160;8.214;2024-02-26T10:35:27;5.90;99.90
23267;DHT22;11802;53.160;8.214;2024-02-26T10:37:54;5.90;99.90
23267;DHT22;11802;53.160;8.214;2024-02-26T10:40:20;6.00;99.90
23267;DHT22;11802;53.160;8.214;2024-02-26T10:42:45;6.10;99.90
23267;DHT22;11802;53.160;8.214;2024-02-26T10:45:11;6.20;99.90
23267;DHT22;11802;53.160;8.214;2024-02-26T10:47:47;6.30;99.90
23267;DHT22;11802;53.160;8.214;2024-02-26T10:50:14;6.30;99.90
23267;DHT22;11802;53.160;8.214;2024-02-26T10:52:42;6.30;99.90
23267;DHT22;11802;53.160;8.214;2024-02-26T10:55:10;6.30;99.90
23267;DHT22;11802;53.160;8.214;2024-02-26T10:57:40;6.40;99.90
23267;DHT22;11802;53.160;8.214;2024-02-26T11:00:06;6.40;99.90
23267;DHT22;11802;53.160;8.214;2024-02-26T11:02:33;6.40;99.90
23267;DHT22;11802;53.160;8.214;2024-02-26T11:05:02;6.40;99.90
23267;DHT22;11802;53.160;8.214;2024-02-26T11:07:30;6.50;99.90
23267;DHT22;11802;53.160;8.214;2024-02-26T11:09:56;6.40;99.90
23267;DHT22;11802;53.160;8.214;2024-02-26T11:12:23;6.40;99.90
23267;DHT22;11802;53.160;8.214;2024-02-26T11:14:50;6.40;99.90
23267;DHT22;11802;53.160;8.214;2024-02-26T11:17:30;6.50;99.90
23267;DHT22;11802;53.160;8.214;2024-02-26T11:22:51;6.70;99.90
23267;DHT22;11802;53.160;8.214;2024-02-26T11:25:25;6.70;99.90
23267;DHT22;11802;53.160;8.214;2024-02-26T11:27:57;6.60;87.00
23267;DHT22;11802;53.160;8.214;2024-02-26T11:30:25;6.60;99.90
23267;DHT22;11802;53.160;8.214;2024-02-26T11:35:36;6.70;99.90
23267;DHT22;11802;53.160;8.214;2024-02-26T11:38:02;6.70;99.90
23267;DHT22;11802;53.160;8.214;2024-02-26T11:40:31;6.80;99.90
23267;DHT22;11802;53.160;8.214;2024-02-26T11:42:58;6.80;99.90
23267;DHT22;11802;53.160;8.214;2024-02-26T11:48:11;6.90;99.90
23267;DHT22;11802;53.160;8.214;2024-02-26T11:50:42;6.90;99.90
23267;DHT22;11802;53.160;8.214;2024-02-26T11:53:27;7.00;98.70
23267;DHT22;11802;53.160;8.214;2024-02-26T11:59:37;6.90;99.90
23267;DHT22;11802;53.160;8.214;2024-02-26T12:02:09;6.90;94.50
23267;DHT22;11802;53.160;8.214;2024-02-26T12:04:38;6.90;98.50
23267;DHT22;11802;53.160;8.214;2024-02-26T12:07:04;7.00;99.90
23267;DHT22;11802;53.160;8.214;2024-02-26T12:13:14;7.20;92.60
23267;DHT22;11802;53.160;8.214;2024-02-26T12:15:53;7.20;42.20
23267;DHT22;11802;53.160;8.214;2024-02-26T12:18:20;7.20;77.30
23267;DHT22;11802;53.160;8.214;2024-02-26T12:21:08;7.30;67.30
23267;DHT22;11802;53.160;8.214;2024-02-26T12:23:38;7.40;69.30
23267;DHT22;11802;53.160;8.214;2024-02-26T12:26:04;7.50;21.50
23267;DHT22;11802;53.160;8.214;2024-02-26T12:28:30;7.50;13.00
23267;DHT22;11802;53.160;8.214;2024-02-26T12:30:56;7.70;1.50
23267;DHT22;11802;53.160;8.214;2024-02-26T12:33:25;7.80;1.00
23267;DHT22;11802;53.160;8.214;2024-02-26T12:35:52;7.70;1.00
23267;DHT22;11802;53.160;8.214;2024-02-26T12:38:17;7.90;1.00
23267;DHT22;11802;53.160;8.214;2024-02-26T12:40:44;8.00;1.00
23267;DHT22;11802;53.160;8.214;2024-02-26T12:43:10;8.10;1.00
23267;DHT22;11802;53.160;8.214;2024-02-26T12:45:43;8.10;1.00
23267;DHT22;11802;53.160;8.214;2024-02-26T12:48:13;8.00;1.00
23267;DHT22;11802;53.160;8.214;2024-02-26T12:50:38;8.10;1.00
23267;DHT22;11802;53.160;8.214;2024-02-26T12:53:05;8.20;1.00
23267;DHT22;11802;53.160;8.214;2024-02-26T12:55:32;8.20;1.00
23267;DHT22;11802;53.160;8.214;2024-02-26T12:58:00;8.10;1.00
23267;DHT22;11802;53.160;8.214;2024-02-26T13:00:27;8.10;1.00
23267;DHT22;11802;53.160;8.214;2024-02-26T13:02:54;7.90;1.00
23267;DHT22;11802;53.160;8.214;2024-02-26T13:05:21;7.80;1.00
23267;DHT22;11802;53.160;8.214;2024-02-26T13:07:48;7.80;1.00
23267;DHT22;11802;53.160;8.214;2024-02-26T13:10:14;7.80;1.00
23267;DHT22;11802;53.160;8.214;2024-02-26T13:12:44;7.70;1.00
23267;DHT22;11802;53.160;8.214;2024-02-26T13:15:15;7.70;1.00
23267;DHT22;11802;53.160;8.214;2024-02-26T13:17:41;7.60;1.00
23267;DHT22;11802;53.160;8.214;2024-02-26T13:20:08;7.40;1.00
23267;DHT22;11802;53.160;8.214;2024-02-26T13:22:36;7.50;1.00
23267;DHT22;11802;53.160;8.214;2024-02-26T13:25:01;7.30;1.00
23267;DHT22;11802;53.160;8.214;2024-02-26T13:27:30;7.30;1.00
23267;DHT22;11802;53.160;8.214;2024-02-26T13:30:09;7.30;1.00
23267;DHT22;11802;53.160;8.214;2024-02-26T13:32:37;7.30;1.00
23267;DHT22;11802;53.160;8.214;2024-02-26T13:35:12;7.30;1.00
23267;DHT22;11802;53.160;8.214;2024-02-26T13:37:39;7.30;1.00
23267;DHT22;11802;53.160;8.214;2024-02-26T13:40:09;7.40;1.00
23267;DHT22;11802;53.160;8.214;2024-02-26T13:42:39;7.40;1.00
23267;DHT22;11802;53.160;8.214;2024-02-26T13:45:22;7.50;1.00
23267;DHT22;11802;53.160;8.214;2024-02-26T13:47:47;7.40;1.00
23267;DHT22;11802;53.160;8.214;2024-02-26T13:50:25;7.40;1.00
23267;DHT22;11802;53.160;8.214;2024-02-26T13:52:51;7.30;1.00
23267;DHT22;11802;53.160;8.214;2024-02-26T13:55:19;7.30;1.00
23267;DHT22;11802;53.160;8.214;2024-02-26T13:57:46;7.20;1.00
23267;DHT22;11802;53.160;8.214;2024-02-26T14:00:12;7.20;1.00
23267;DHT22;11802;53.160;8.214;2024-02-26T14:02:38;7.20;1.00
23267;DHT22;11802;53.160;8.214;2024-02-26T14:05:04;7.20;1.00
23267;DHT22;11802;53.160;8.214;2024-02-26T14:07:33;7.30;1.00
23267;DHT22;11802;53.160;8.214;2024-02-26T14:09:58;7.20;1.00
23267;DHT22;11802;53.160;8.214;2024-02-26T14:12:24;7.20;1.00
23267;DHT22;11802;53.160;8.214;2024-02-26T14:14:49;7.20;1.00
23267;DHT22;11802;53.160;8.214;2024-02-26T14:17:15;7.20;1.00
23267;DHT22;11802;53.160;8.214;2024-02-26T14:19:41;7.10;1.00
23267;DHT22;11802;53.160;8.214;2024-02-26T14:22:12;7.00;1.00
23267;DHT22;11802;53.160;8.214;2024-02-26T14:24:38;7.00;1.00
23267;DHT22;11802;53.160;8.214;2024-02-26T14:27:05;6.90;1.00
23267;DHT22;11802;53.160;8.214;2024-02-26T14:29:34;7.00;1.00
23267;DHT22;11802;53.160;8.214;2024-02-26T14:32:00;7.00;1.00
23267;DHT22;11802;53.160;8.214;2024-02-26T14:34:26;6.90;1.00
23267;DHT22;11802;53.160;8.214;2024-02-26T14:36:52;6.90;1.00
23267;DHT22;11802;53.160;8.214;2024-02-26T14:39:18;6.90;1.00
23267;DHT22;11802;53.160;8.214;2024-02-26T14:41:43;6.90;1.00
23267;DHT22;11802;53.160;8.214;2024-02-26T14:44:09;6.90;1.00
23267;DHT22;11802;53.160;8.214;2024-02-26T14:46:36;6.80;1.00
23267;DHT22;11802;53.160;8.214;2024-02-26T14:49:01;6.80;12.40
23267;DHT22;11802;53.160;8.214;2024-02-26T14:51:27;6.80;4.00
23267;DHT22;11802;53.160;8.214;2024-02-26T14:53:53;6.80;1.00
23267;DHT22;11802;53.160;8.214;2024-02-26T14:56:18;6.80;12.30
23267;DHT22;11802;53.160;8.214;2024-02-26T14:58:44;6.80;22.00
23267;DHT22;11802;53.160;8.214;2024-02-26T15:01:11;6.80;21.60
23267;DHT22;11802;53.160;8.214;2024-02-26T15:03:37;6.80;9.50
23267;DHT22;11802;53.160;8.214;2024-02-26T15:06:02;6.80;18.30
23267;DHT22;11802;53.160;8.214;2024-02-26T15:08:28;6.70;27.00
23267;DHT22;11802;53.160;8.214;2024-02-26T15:10:54;6.70;38.50
23267;DHT22;11802;53.160;8.214;2024-02-26T15:13:19;6.80;36.10
23267;DHT22;11802;53.160;8.214;2024-02-26T15:15:45;6.70;22.90
23267;DHT22;11802;53.160;8.214;2024-02-26T15:18:11;6.70;20.50
23267;DHT22;11802;53.160;8.214;2024-02-26T15:20:41;6.70;24.80
23267;DHT22;11802;53.160;8.214;2024-02-26T15:23:07;6.70;33.50
23267;DHT22;11802;53.160;8.214;2024-02-26T15:25:33;6.70;45.80
23267;DHT22;11802;53.160;8.214;2024-02-26T15:27:58;6.60;37.90
23267;DHT22;11802;53.160;8.214;2024-02-26T15:30:24;6.60;54.40
23267;DHT22;11802;53.160;8.214;2024-02-26T15:32:50;6.60;49.30
23267;DHT22;11802;53.160;8.214;2024-02-26T15:35:15;6.60;56.80
23267;DHT22;11802;53.160;8.214;2024-02-26T15:37:41;6.60;79.00
23267;DHT22;11802;53.160;8.214;2024-02-26T15:40:07;6.60;75.60
23267;DHT22;11802;53.160;8.214;2024-02-26T15:42:33;6.60;74.80
23267;DHT22;11802;53.160;8.214;2024-02-26T15:44:59;6.60;73.20
23267;DHT22;11802;53.160;8.214;2024-02-26T15:47:24;6.60;80.80
23267;DHT22;11802;53.160;8.214;2024-02-26T15:49:50;6.60;99.90
23267;DHT22;11802;53.160;8.214;2024-02-26T15:52:15;6.60;99.60
23267;DHT22;11802;53.160;8.214;2024-02-26T15:54:41;6.50;96.90
23267;DHT22;11802;53.160;8.214;2024-02-26T15:57:07;6.50;99.90
23267;DHT22;11802;53.160;8.214;2024-02-26T15:59:35;6.40;99.90
23267;DHT22;11802;53.160;8.214;2024-02-26T16:02:00;6.40;99.90